Time;durP1;ratioP1;P1;durP2;ratioP2;P2;SDS_P1;SDS_P2;PMS_P1;PMS_P2;Temp;Humidity;BMP_temperature;BMP_pressure;BME280_temperature;BME280_humidity;BME280_pressure;Samples;Min_cycle;Max_cycle;Signal;HPM_P1;HPM_P2
2023/09/15 00:00:17;;;;;;;9.23;4.80;;;;;;;;;;5074327;28;20029;-84
2023/09/15 00:02:43;;;;;;;8.32;3.70;;;;;;;;;;5073225;28;20028;-84
2023/09/15 00:05:10;;;;;;;8.40;4.18;;;;;;;;;;5073974;28;20023;-84
2023/09/15 00:07:36;;;;;;;7.53;4.68;;;;;;;;;;5073164;28;20026;-84
2023/09/15 00:10:01;;;;;;;8.48;4.28;;;;;;;;;;5074540;28;20033;-84
2023/09/15 00:12:27;;;;;;;8.38;4.55;;;;;;;;;;5074220;28;20489;-84
2023/09/15 00:14:55;;;;;;;7.80;4.38;;;;;;;;;;5073920;28;20031;-84
2023/09/15 00:17:20;;;;;;;9.32;4.75;;;;;;;;;;5075200;28;20028;-84
2023/09/15 00:19:46;;;;;;;7.85;4.55;;;;;;;;;;5074354;28;20521;-84
2023/09/15 00:22:12;;;;;;;9.15;4.40;;;;;;;;;;5074999;28;20052;-84
2023/09/15 00:24:40;;;;;;;9.23;4.47;;;;;;;;;;5070989;28;20063;-85
2023/09/15 00:27:05;;;;;;;6.72;4.25;;;;;;;;;;5068038;28;20451;-84
2023/09/15 00:29:31;;;;;;;9.85;4.22;;;;;;;;;;5077182;28;20329;-84
2023/09/15 00:31:56;;;;;;;10.27;4.15;;;;;;;;;;5079737;28;20046;-84
2023/09/15 00:34:22;;;;;;;8.85;4.43;;;;;;;;;;5078536;28;20028;-84
2023/09/15 00:36:49;;;;;;;6.97;3.97;;;;;;;;;;5076899;28;20024;-84
2023/09/15 00:39:14;;;;;;;7.05;4.03;;;;;;;;;;5077006;28;20131;-84
2023/09/15 00:41:40;;;;;;;10.65;4.43;;;;;;;;;;5076977;28;20024;-84
2023/09/15 00:44:07;;;;;;;8.23;4.45;;;;;;;;;;5076204;28;20547;-84
2023/09/15 00:46:33;;;;;;;6.88;3.90;;;;;;;;;;5075674;28;20332;-84
2023/09/15 00:48:59;;;;;;;8.57;4.03;;;;;;;;;;5074199;28;20456;-84
2023/09/15 00:51:27;;;;;;;8.30;4.20;;;;;;;;;;5061927;28;20025;-83
2023/09/15 00:53:54;;;;;;;10.77;3.85;;;;;;;;;;5067624;28;20424;-84
2023/09/15 00:56:19;;;;;;;7.97;4.13;;;;;;;;;;5073796;28;20027;-84
2023/09/15 00:58:46;;;;;;;5.95;3.58;;;;;;;;;;5059208;28;20132;-84
2023/09/15 01:01:12;;;;;;;7.10;3.63;;;;;;;;;;5074268;28;20027;-84
2023/09/15 01:03:39;;;;;;;8.32;4.32;;;;;;;;;;5072072;28;20103;-85
2023/09/15 01:06:06;;;;;;;7.05;3.70;;;;;;;;;;5067409;28;20037;-84
2023/09/15 01:08:31;;;;;;;7.75;3.90;;;;;;;;;;5066844;28;20380;-85
2023/09/15 01:11:01;;;;;;;8.32;4.18;;;;;;;;;;5073002;28;20017;-84
2023/09/15 01:13:26;;;;;;;8.50;4.15;;;;;;;;;;5073922;28;20032;-84
2023/09/15 01:16:00;;;;;;;7.35;4.10;;;;;;;;;;5072847;28;20029;-83
2023/09/15 01:18:46;;;;;;;10.35;3.90;;;;;;;;;;5072456;28;20059;-84
2023/09/15 01:21:36;;;;;;;13.77;4.35;;;;;;;;;;5047237;28;20657;-83
2023/09/15 01:24:11;;;;;;;11.73;4.65;;;;;;;;;;5058737;28;20517;-84
2023/09/15 01:26:41;;;;;;;10.70;4.22;;;;;;;;;;5073987;28;20426;-84
2023/09/15 01:29:14;;;;;;;9.68;4.82;;;;;;;;;;5072748;28;20021;-85
2023/09/15 01:31:40;;;;;;;7.53;4.00;;;;;;;;;;5065645;28;20091;-82
2023/09/15 01:34:06;;;;;;;8.05;3.92;;;;;;;;;;5068011;28;20492;-84
2023/09/15 01:36:31;;;;;;;7.38;3.72;;;;;;;;;;5072948;28;20040;-84
2023/09/15 01:38:57;;;;;;;9.35;3.90;;;;;;;;;;5073085;28;20021;-84
2023/09/15 01:41:22;;;;;;;9.73;4.50;;;;;;;;;;5072839;28;20028;-84
2023/09/15 01:43:47;;;;;;;6.47;4.05;;;;;;;;;;5073747;28;20021;-84
2023/09/15 01:46:13;;;;;;;7.90;4.18;;;;;;;;;;5072902;28;20479;-84
2023/09/15 01:48:38;;;;;;;9.38;4.60;;;;;;;;;;5058955;28;20472;-84
2023/09/15 01:51:04;;;;;;;8.55;4.45;;;;;;;;;;5073520;28;20027;-84
2023/09/15 01:53:30;;;;;;;8.15;4.10;;;;;;;;;;5071921;28;20032;-84
2023/09/15 01:55:55;;;;;;;9.95;5.18;;;;;;;;;;5073121;28;20028;-84
2023/09/15 01:58:21;;;;;;;8.48;3.97;;;;;;;;;;5073691;28;20040;-83
2023/09/15 02:00:46;;;;;;;8.13;3.92;;;;;;;;;;5074777;28;20032;-83
2023/09/15 02:03:12;;;;;;;8.82;4.70;;;;;;;;;;5072832;28;20035;-83
2023/09/15 02:05:37;;;;;;;10.13;4.90;;;;;;;;;;5073411;28;20104;-83
2023/09/15 02:08:06;;;;;;;6.47;4.50;;;;;;;;;;5075774;28;20013;-83
2023/09/15 02:10:34;;;;;;;9.07;4.95;;;;;;;;;;5073753;28;20376;-84
2023/09/15 02:13:05;;;;;;;11.07;5.93;;;;;;;;;;5065535;28;20032;-83
2023/09/15 02:15:32;;;;;;;12.32;5.90;;;;;;;;;;5074122;28;20081;-83
2023/09/15 02:18:00;;;;;;;11.00;6.25;;;;;;;;;;5072532;28;20444;-83
2023/09/15 02:20:26;;;;;;;8.80;5.45;;;;;;;;;;5059136;28;20102;-84
2023/09/15 02:22:51;;;;;;;11.02;5.97;;;;;;;;;;5071470;28;20021;-83
2023/09/15 02:25:17;;;;;;;13.00;6.60;;;;;;;;;;5073763;28;20077;-84
2023/09/15 02:27:42;;;;;;;10.23;5.47;;;;;;;;;;5072663;28;20047;-84
2023/09/15 02:30:08;;;;;;;9.88;5.25;;;;;;;;;;5071282;28;20017;-84
2023/09/15 02:32:36;;;;;;;12.32;5.43;;;;;;;;;;5070543;28;20096;-84
2023/09/15 02:35:02;;;;;;;12.52;6.47;;;;;;;;;;5072065;28;20508;-83
2023/09/15 02:37:28;;;;;;;12.05;6.13;;;;;;;;;;5059700;28;20041;-83
2023/09/15 02:39:56;;;;;;;11.32;6.38;;;;;;;;;;5067857;28;20467;-84
2023/09/15 02:42:21;;;;;;;14.07;7.05;;;;;;;;;;5061441;28;20032;-83
2023/09/15 02:44:50;;;;;;;14.32;6.65;;;;;;;;;;5065713;28;20025;-84
2023/09/15 02:47:19;;;;;;;13.68;6.43;;;;;;;;;;5059142;28;20025;-83
2023/09/15 02:49:45;;;;;;;14.52;7.22;;;;;;;;;;5068985;28;20028;-84
2023/09/15 02:52:10;;;;;;;12.20;6.80;;;;;;;;;;5060131;28;20028;-84
2023/09/15 02:54:35;;;;;;;14.55;6.45;;;;;;;;;;5070255;28;20028;-84
2023/09/15 02:57:03;;;;;;;11.82;6.40;;;;;;;;;;5071532;28;20494;-84
2023/09/15 02:59:29;;;;;;;11.98;6.00;;;;;;;;;;5071679;28;20021;-83
2023/09/15 03:01:54;;;;;;;12.32;6.00;;;;;;;;;;5072933;28;20225;-84
2023/09/15 03:04:20;;;;;;;11.90;6.10;;;;;;;;;;5073821;28;20024;-84
2023/09/15 03:06:47;;;;;;;8.90;5.35;;;;;;;;;;5073389;28;20023;-84
2023/09/15 03:09:12;;;;;;;11.07;6.10;;;;;;;;;;5072902;28;20021;-84
2023/09/15 03:11:37;;;;;;;12.68;6.20;;;;;;;;;;5068328;28;20021;-84
2023/09/15 03:14:03;;;;;;;16.00;7.28;;;;;;;;;;5062254;28;20035;-83
2023/09/15 03:16:29;;;;;;;14.50;7.28;;;;;;;;;;5054983;28;20033;-83
2023/09/15 03:18:55;;;;;;;12.50;6.30;;;;;;;;;;5061419;28;20439;-84
2023/09/15 03:21:20;;;;;;;13.52;6.75;;;;;;;;;;5073711;28;20116;-84
2023/09/15 03:23:49;;;;;;;11.93;6.25;;;;;;;;;;5068399;28;20024;-83
2023/09/15 03:26:14;;;;;;;12.63;6.75;;;;;;;;;;5073790;28;20056;-83
2023/09/15 03:28:40;;;;;;;16.67;6.85;;;;;;;;;;5071290;28;20020;-83
2023/09/15 03:31:05;;;;;;;13.05;6.38;;;;;;;;;;5061849;28;20025;-84
2023/09/15 03:33:31;;;;;;;12.10;6.20;;;;;;;;;;5066649;28;20048;-83
2023/09/15 03:35:59;;;;;;;12.02;6.38;;;;;;;;;;5071600;28;20021;-83
2023/09/15 03:38:25;;;;;;;17.13;6.60;;;;;;;;;;5072088;28;20029;-84
2023/09/15 03:40:50;;;;;;;13.68;6.07;;;;;;;;;;5070746;28;20142;-82
2023/09/15 03:43:15;;;;;;;17.15;6.57;;;;;;;;;;5063798;28;20025;-84
2023/09/15 03:45:45;;;;;;;12.32;6.32;;;;;;;;;;5059592;28;20020;-83
2023/09/15 03:48:11;;;;;;;11.45;6.57;;;;;;;;;;5066328;28;20082;-83
2023/09/15 03:50:36;;;;;;;13.65;6.90;;;;;;;;;;5061783;28;20128;-83
2023/09/15 03:53:02;;;;;;;12.60;6.90;;;;;;;;;;5061268;28;20055;-84
2023/09/15 03:55:28;;;;;;;12.13;6.28;;;;;;;;;;5076232;28;20104;-84
2023/09/15 03:57:53;;;;;;;13.38;6.10;;;;;;;;;;5074535;28;20040;-84
2023/09/15 04:00:19;;;;;;;10.50;5.78;;;;;;;;;;5074581;28;20036;-84
2023/09/15 04:02:44;;;;;;;10.73;6.07;;;;;;;;;;5074269;28;20029;-84
2023/09/15 04:05:10;;;;;;;11.98;6.70;;;;;;;;;;5074670;28;20028;-84
2023/09/15 04:07:37;;;;;;;12.77;6.32;;;;;;;;;;5074115;28;20023;-84
2023/09/15 04:10:03;;;;;;;13.95;7.13;;;;;;;;;;5057150;28;20357;-83
2023/09/15 04:12:30;;;;;;;12.35;6.95;;;;;;;;;;5074387;28;20498;-83
2023/09/15 04:14:55;;;;;;;15.45;7.15;;;;;;;;;;5076164;28;20539;-83
2023/09/15 04:17:21;;;;;;;14.65;7.22;;;;;;;;;;5075688;28;20468;-83
2023/09/15 04:19:46;;;;;;;15.32;6.40;;;;;;;;;;5071986;28;20017;-84
2023/09/15 04:22:12;;;;;;;15.68;7.30;;;;;;;;;;5076288;28;20107;-84
2023/09/15 04:24:37;;;;;;;16.08;6.72;;;;;;;;;;5074960;28;20058;-83
2023/09/15 04:27:02;;;;;;;14.70;6.97;;;;;;;;;;5062386;28;20028;-83
2023/09/15 04:29:28;;;;;;;12.45;6.68;;;;;;;;;;5078146;28;20020;-84
2023/09/15 04:31:53;;;;;;;12.98;6.60;;;;;;;;;;5072282;28;20037;-84
2023/09/15 04:34:19;;;;;;;13.02;6.45;;;;;;;;;;5067049;28;20050;-84
2023/09/15 04:36:53;;;;;;;12.10;6.35;;;;;;;;;;5063568;28;20036;-83
2023/09/15 04:39:18;;;;;;;13.52;6.40;;;;;;;;;;5078663;28;20020;-84
2023/09/15 04:41:47;;;;;;;11.10;6.22;;;;;;;;;;5073993;28;20039;-84
2023/09/15 04:44:12;;;;;;;15.20;6.72;;;;;;;;;;5073549;28;20124;-84
2023/09/15 04:46:38;;;;;;;13.43;6.20;;;;;;;;;;5063571;28;20036;-82
2023/09/15 04:49:04;;;;;;;13.52;7.05;;;;;;;;;;5072299;28;20028;-81
2023/09/15 04:51:29;;;;;;;13.18;6.30;;;;;;;;;;5067358;28;20028;-83
2023/09/15 04:54:03;;;;;;;12.05;6.18;;;;;;;;;;5073311;28;20024;-82
2023/09/15 04:56:31;;;;;;;12.27;6.03;;;;;;;;;;5060889;28;20069;-83
2023/09/15 04:58:56;;;;;;;11.00;5.85;;;;;;;;;;5073156;28;20415;-84
2023/09/15 05:01:24;;;;;;;12.07;5.88;;;;;;;;;;5072701;28;20468;-84
2023/09/15 05:03:50;;;;;;;12.80;7.00;;;;;;;;;;5074509;28;20360;-84
2023/09/15 05:06:15;;;;;;;12.75;6.80;;;;;;;;;;5073266;28;20039;-83
2023/09/15 05:08:41;;;;;;;14.00;7.00;;;;;;;;;;5073621;28;20019;-84
2023/09/15 05:11:07;;;;;;;11.90;6.43;;;;;;;;;;5059059;28;20075;-84
2023/09/15 05:13:32;;;;;;;14.65;6.65;;;;;;;;;;5074002;28;20025;-84
2023/09/15 05:15:57;;;;;;;12.65;6.28;;;;;;;;;;5073157;28;20032;-84
2023/09/15 05:18:23;;;;;;;14.85;5.93;;;;;;;;;;5073105;28;20515;-83
2023/09/15 05:20:48;;;;;;;14.73;6.13;;;;;;;;;;5065729;28;20495;-84
2023/09/15 05:23:13;;;;;;;15.35;6.55;;;;;;;;;;5052819;28;20036;-84
2023/09/15 05:25:39;;;;;;;12.75;6.47;;;;;;;;;;5062057;28;20413;-84
2023/09/15 05:28:04;;;;;;;13.63;6.55;;;;;;;;;;5072866;28;20128;-83
2023/09/15 05:30:31;;;;;;;12.60;6.20;;;;;;;;;;5070134;28;20016;-83
2023/09/15 05:32:56;;;;;;;14.77;7.22;;;;;;;;;;5073941;28;20028;-84
2023/09/15 05:35:22;;;;;;;13.98;6.88;;;;;;;;;;5073355;28;20111;-83
2023/09/15 05:37:47;;;;;;;13.75;6.93;;;;;;;;;;5061846;28;20028;-84
2023/09/15 05:40:13;;;;;;;10.68;6.15;;;;;;;;;;5069777;28;20025;-84
2023/09/15 05:42:38;;;;;;;13.65;6.60;;;;;;;;;;5075128;28;20025;-84
2023/09/15 05:45:04;;;;;;;13.68;7.13;;;;;;;;;;5075127;28;20020;-84
2023/09/15 05:47:29;;;;;;;9.75;5.43;;;;;;;;;;5073532;28;20043;-83
2023/09/15 05:50:00;;;;;;;13.00;6.93;;;;;;;;;;5075347;28;20055;-84
2023/09/15 05:52:28;;;;;;;11.27;6.07;;;;;;;;;;5074243;28;20047;-84
2023/09/15 05:54:54;;;;;;;13.93;6.15;;;;;;;;;;5073692;28;20062;-83
2023/09/15 05:57:19;;;;;;;13.38;6.40;;;;;;;;;;5076968;28;20052;-84
2023/09/15 05:59:45;;;;;;;12.73;6.30;;;;;;;;;;5061685;28;20078;-84
2023/09/15 06:02:10;;;;;;;12.50;6.82;;;;;;;;;;5068260;28;20027;-84
2023/09/15 06:04:35;;;;;;;16.33;8.15;;;;;;;;;;5071655;28;20051;-84
2023/09/15 06:07:00;;;;;;;13.32;7.22;;;;;;;;;;5071973;28;20491;-84
2023/09/15 06:09:26;;;;;;;12.63;6.85;;;;;;;;;;5058276;28;20090;-84
2023/09/15 06:11:51;;;;;;;13.80;7.50;;;;;;;;;;5071317;28;20028;-84
2023/09/15 06:14:16;;;;;;;14.02;7.82;;;;;;;;;;5072153;28;20082;-83
2023/09/15 06:16:42;;;;;;;18.40;7.65;;;;;;;;;;5071985;28;20464;-84
2023/09/15 06:19:07;;;;;;;14.25;7.10;;;;;;;;;;5052464;28;20032;-83
2023/09/15 06:21:35;;;;;;;14.38;7.13;;;;;;;;;;5068959;28;20024;-85
2023/09/15 06:24:04;;;;;;;18.38;7.82;;;;;;;;;;5071807;28;20361;-84
2023/09/15 06:26:29;;;;;;;20.13;8.25;;;;;;;;;;5071553;28;20112;-84
2023/09/15 06:28:55;;;;;;;14.63;7.95;;;;;;;;;;5071025;28;20086;-84
2023/09/15 06:31:20;;;;;;;15.35;8.10;;;;;;;;;;5071159;28;20119;-83
2023/09/15 06:33:46;;;;;;;20.02;8.52;;;;;;;;;;5057468;28;20064;-84
2023/09/15 06:36:11;;;;;;;15.77;7.80;;;;;;;;;;5071443;28;20028;-84
2023/09/15 06:38:39;;;;;;;17.23;8.02;;;;;;;;;;5070871;28;20108;-84
2023/09/15 06:41:04;;;;;;;17.38;8.38;;;;;;;;;;5071694;28;20062;-84
2023/09/15 06:43:30;;;;;;;15.68;7.70;;;;;;;;;;5071489;28;20112;-84
2023/09/15 06:45:55;;;;;;;15.52;8.05;;;;;;;;;;5071500;28;20082;-84
2023/09/15 06:48:20;;;;;;;14.25;7.90;;;;;;;;;;5066258;28;20024;-84
2023/09/15 06:50:46;;;;;;;16.70;7.53;;;;;;;;;;5068429;28;20017;-84
2023/09/15 06:53:11;;;;;;;17.23;7.88;;;;;;;;;;5067540;28;20480;-84
2023/09/15 06:55:39;;;;;;;14.60;7.93;;;;;;;;;;5072220;28;20036;-84
2023/09/15 06:58:05;;;;;;;17.42;7.50;;;;;;;;;;5059395;28;20372;-84
2023/09/15 07:00:30;;;;;;;15.98;7.90;;;;;;;;;;5074144;28;20753;-84
2023/09/15 07:02:56;;;;;;;15.15;8.02;;;;;;;;;;5071646;28;20032;-84
2023/09/15 07:05:21;;;;;;;13.73;7.35;;;;;;;;;;5063813;28;20021;-85
2023/09/15 07:07:46;;;;;;;15.00;7.38;;;;;;;;;;5069564;28;20371;-84
2023/09/15 07:10:15;;;;;;;15.65;7.63;;;;;;;;;;5075674;28;20032;-84
2023/09/15 07:12:43;;;;;;;16.58;7.50;;;;;;;;;;5072365;28;20051;-84
2023/09/15 07:15:13;;;;;;;14.75;7.00;;;;;;;;;;5070697;28;20032;-84
2023/09/15 07:17:39;;;;;;;14.82;7.78;;;;;;;;;;5079336;28;20495;-85
2023/09/15 07:20:07;;;;;;;32.33;8.07;;;;;;;;;;5076063;28;20020;-84
2023/09/15 07:22:33;;;;;;;17.02;6.85;;;;;;;;;;5076653;28;20026;-84
2023/09/15 07:24:58;;;;;;;13.20;6.03;;;;;;;;;;5072254;28;20101;-84
2023/09/15 07:27:31;;;;;;;13.43;6.05;;;;;;;;;;5055807;28;20032;-84
2023/09/15 07:29:56;;;;;;;12.45;6.60;;;;;;;;;;5072349;28;20032;-84
2023/09/15 07:32:21;;;;;;;13.60;6.50;;;;;;;;;;5074651;28;20077;-84
2023/09/15 07:34:47;;;;;;;12.65;6.78;;;;;;;;;;5071656;28;20119;-84
2023/09/15 07:37:12;;;;;;;10.70;5.95;;;;;;;;;;5074969;28;20028;-84
2023/09/15 07:39:37;;;;;;;14.60;6.07;;;;;;;;;;5075459;28;20035;-84
2023/09/15 07:42:07;;;;;;;10.05;5.53;;;;;;;;;;5075122;28;20027;-82
2023/09/15 07:44:32;;;;;;;14.45;5.55;;;;;;;;;;5076008;28;20460;-84
2023/09/15 07:46:58;;;;;;;10.85;5.30;;;;;;;;;;5074536;28;21469;-84
2023/09/15 07:49:23;;;;;;;11.50;5.93;;;;;;;;;;5074757;28;20024;-83
2023/09/15 07:51:50;;;;;;;12.35;5.35;;;;;;;;;;5075825;28;20024;-84
2023/09/15 07:54:16;;;;;;;13.40;5.10;;;;;;;;;;5065385;28;20028;-85
2023/09/15 07:56:41;;;;;;;7.68;4.47;;;;;;;;;;5074598;28;20046;-84
2023/09/15 07:59:07;;;;;;;8.10;4.80;;;;;;;;;;5073692;28;20480;-84
2023/09/15 08:01:33;;;;;;;10.38;4.85;;;;;;;;;;5061117;28;20111;-84
2023/09/15 08:03:58;;;;;;;9.23;5.10;;;;;;;;;;5070635;28;20112;-84
2023/09/15 08:06:25;;;;;;;10.10;4.70;;;;;;;;;;5074182;28;20082;-84
2023/09/15 08:08:50;;;;;;;10.82;4.60;;;;;;;;;;5074604;28;20024;-85
2023/09/15 08:11:15;;;;;;;12.07;4.55;;;;;;;;;;5075263;28;20494;-84
2023/09/15 08:13:41;;;;;;;10.52;4.32;;;;;;;;;;5074053;28;20021;-84
2023/09/15 08:16:06;;;;;;;11.57;4.18;;;;;;;;;;5072778;28;20031;-83
2023/09/15 08:18:32;;;;;;;7.38;3.90;;;;;;;;;;5076058;28;20024;-85
2023/09/15 08:20:57;;;;;;;9.35;3.45;;;;;;;;;;5075782;28;20029;-84
2023/09/15 08:23:25;;;;;;;7.63;4.10;;;;;;;;;;5075677;28;20031;-83
2023/09/15 08:25:53;;;;;;;8.48;3.83;;;;;;;;;;5075731;28;20340;-84
2023/09/15 08:28:19;;;;;;;6.70;3.42;;;;;;;;;;5075645;28;20017;-83
2023/09/15 08:30:46;;;;;;;8.32;3.58;;;;;;;;;;5080078;28;20066;-84
2023/09/15 08:33:12;;;;;;;7.80;3.67;;;;;;;;;;5075777;28;20284;-85
2023/09/15 08:35:37;;;;;;;6.82;3.53;;;;;;;;;;5069380;28;20082;-85
2023/09/15 08:38:05;;;;;;;9.57;3.95;;;;;;;;;;5061842;28;20120;-84
2023/09/15 08:40:37;;;;;;;11.20;3.70;;;;;;;;;;5073562;28;20046;-85
2023/09/15 08:43:03;;;;;;;6.65;3.50;;;;;;;;;;5074993;28;20025;-84
2023/09/15 08:45:32;;;;;;;5.03;2.95;;;;;;;;;;5074085;28;20020;-84
2023/09/15 08:47:59;;;;;;;4.85;2.83;;;;;;;;;;5074440;28;20369;-85
2023/09/15 08:50:24;;;;;;;6.05;3.38;;;;;;;;;;5074319;28;20066;-84
2023/09/15 08:52:50;;;;;;;10.90;3.78;;;;;;;;;;5069501;28;20480;-85
2023/09/15 08:55:16;;;;;;;8.73;3.25;;;;;;;;;;5071215;28;20056;-85
2023/09/15 08:57:45;;;;;;;11.65;3.50;;;;;;;;;;5073598;28;20016;-85
2023/09/15 09:00:12;;;;;;;6.43;3.20;;;;;;;;;;5074202;28;20020;-85
2023/09/15 09:02:38;;;;;;;5.50;3.00;;;;;;;;;;5067192;28;20425;-85
2023/09/15 09:05:04;;;;;;;7.53;3.10;;;;;;;;;;5054398;28;20037;-85
2023/09/15 09:07:30;;;;;;;9.77;3.55;;;;;;;;;;5067264;28;20021;-84
2023/09/15 09:09:55;;;;;;;6.22;2.80;;;;;;;;;;5074864;28;20021;-85
2023/09/15 09:12:21;;;;;;;8.52;3.22;;;;;;;;;;5069747;28;20020;-85
2023/09/15 09:14:46;;;;;;;4.80;2.70;;;;;;;;;;5073133;28;20043;-85
2023/09/15 09:17:12;;;;;;;10.75;2.92;;;;;;;;;;5068393;28;20024;-85
2023/09/15 09:19:39;;;;;;;6.53;3.08;;;;;;;;;;5071909;28;20035;-86
2023/09/15 09:22:07;;;;;;;4.85;2.65;;;;;;;;;;5059568;28;20082;-85
2023/09/15 09:24:33;;;;;;;7.90;2.47;;;;;;;;;;5073259;28;20031;-85
2023/09/15 09:26:58;;;;;;;6.55;2.78;;;;;;;;;;5059150;28;20048;-85
2023/09/15 09:29:26;;;;;;;8.30;2.75;;;;;;;;;;5073032;28;20043;-86
2023/09/15 09:31:51;;;;;;;5.05;2.58;;;;;;;;;;5059380;28;20074;-85
2023/09/15 09:34:17;;;;;;;5.03;2.50;;;;;;;;;;5074568;28;20009;-85
2023/09/15 09:36:49;;;;;;;5.55;2.35;;;;;;;;;;5073659;28;20020;-83
2023/09/15 09:39:15;;;;;;;6.45;2.38;;;;;;;;;;5064463;28;20025;-86
2023/09/15 09:41:41;;;;;;;5.97;1.90;;;;;;;;;;5068732;28;20058;-86
2023/09/15 09:44:10;;;;;;;5.57;2.10;;;;;;;;;;5074585;28;20035;-84
2023/09/15 09:46:36;;;;;;;4.15;2.60;;;;;;;;;;5061704;28;20036;-86
2023/09/15 09:49:02;;;;;;;5.63;2.30;;;;;;;;;;5062575;28;20012;-88
2023/09/15 09:51:28;;;;;;;7.15;2.10;;;;;;;;;;5074508;28;20039;-88
2023/09/15 09:53:55;;;;;;;2.67;1.80;;;;;;;;;;5074554;28;20494;-88
2023/09/15 09:56:21;;;;;;;5.10;2.40;;;;;;;;;;5061191;28;20020;-88
2023/09/15 09:58:46;;;;;;;4.95;2.33;;;;;;;;;;5075015;28;20120;-88
2023/09/15 10:01:12;;;;;;;6.47;2.28;;;;;;;;;;5074508;28;20048;-88
2023/09/15 10:03:37;;;;;;;5.43;2.28;;;;;;;;;;5066944;28;20478;-87
2023/09/15 10:06:05;;;;;;;6.40;2.33;;;;;;;;;;5073419;28;20154;-89
2023/09/15 10:08:31;;;;;;;4.88;1.88;;;;;;;;;;5065178;28;20070;-89
2023/09/15 10:10:57;;;;;;;7.65;2.13;;;;;;;;;;5058079;28;20108;-88
2023/09/15 10:13:23;;;;;;;4.75;1.85;;;;;;;;;;5072193;28;20032;-88
2023/09/15 10:15:52;;;;;;;8.35;2.20;;;;;;;;;;5073246;28;20025;-89
2023/09/15 10:18:18;;;;;;;6.43;1.98;;;;;;;;;;5074207;28;20020;-88
2023/09/15 10:20:44;;;;;;;3.72;1.90;;;;;;;;;;5074129;28;20027;-88
2023/09/15 10:23:10;;;;;;;6.00;2.30;;;;;;;;;;5070461;28;20460;-88
2023/09/15 10:25:43;;;;;;;3.97;1.80;;;;;;;;;;5068272;28;20419;-89
2023/09/15 10:28:12;;;;;;;5.70;1.65;;;;;;;;;;5068176;28;20047;-88
2023/09/15 10:30:40;;;;;;;3.55;1.77;;;;;;;;;;5064132;28;20111;-88
2023/09/15 10:33:07;;;;;;;4.05;1.70;;;;;;;;;;5066934;28;20032;-88
2023/09/15 10:35:33;;;;;;;5.00;1.92;;;;;;;;;;5072405;28;20108;-89
2023/09/15 10:38:02;;;;;;;2.72;1.40;;;;;;;;;;5072725;28;20361;-89
2023/09/15 10:40:28;;;;;;;6.75;1.92;;;;;;;;;;5073161;28;20034;-88
2023/09/15 10:42:55;;;;;;;6.72;2.25;;;;;;;;;;5072510;28;20016;-89
2023/09/15 10:45:21;;;;;;;5.70;1.60;;;;;;;;;;5072752;28;20017;-89
2023/09/15 10:48:00;;;;;;;3.88;1.80;;;;;;;;;;5063289;28;20494;-88
2023/09/15 10:50:39;;;;;;;5.15;1.85;;;;;;;;;;5069652;28;20021;-88
2023/09/15 10:53:15;;;;;;;3.03;1.80;;;;;;;;;;5062348;28;20056;-88
2023/09/15 10:55:46;;;;;;;3.33;1.50;;;;;;;;;;5071721;28;20021;-88
2023/09/15 10:58:13;;;;;;;4.47;1.70;;;;;;;;;;5073315;28;20368;-88
2023/09/15 11:00:39;;;;;;;3.22;1.55;;;;;;;;;;5073283;28;20040;-89
2023/09/15 11:03:06;;;;;;;5.00;1.98;;;;;;;;;;5073426;28;20061;-89
2023/09/15 11:05:31;;;;;;;3.75;1.70;;;;;;;;;;5074751;28;20050;-88
2023/09/15 11:07:58;;;;;;;5.18;1.88;;;;;;;;;;5061587;28;20088;-89
2023/09/15 11:10:28;;;;;;;3.13;1.58;;;;;;;;;;5074459;28;20043;-88
2023/09/15 11:12:57;;;;;;;3.20;1.70;;;;;;;;;;5064481;28;20079;-89
2023/09/15 11:15:22;;;;;;;3.85;1.48;;;;;;;;;;5064693;28;20453;-89
2023/09/15 11:17:49;;;;;;;2.80;1.65;;;;;;;;;;5058418;28;20016;-89
2023/09/15 11:20:15;;;;;;;3.47;1.70;;;;;;;;;;5059490;28;20017;-88
2023/09/15 11:22:43;;;;;;;3.78;1.65;;;;;;;;;;5071987;28;20115;-89
2023/09/15 11:25:09;;;;;;;2.97;1.40;;;;;;;;;;5068361;28;20092;-89
2023/09/15 11:27:36;;;;;;;4.40;1.40;;;;;;;;;;5062902;28;20205;-89
2023/09/15 11:30:03;;;;;;;3.63;1.50;;;;;;;;;;5072838;28;20013;-89
2023/09/15 11:32:28;;;;;;;2.45;1.13;;;;;;;;;;5071894;28;20016;-89
2023/09/15 11:34:54;;;;;;;4.10;1.50;;;;;;;;;;5071820;28;20032;-89
2023/09/15 11:37:21;;;;;;;2.95;1.70;;;;;;;;;;5071749;28;20020;-89
2023/09/15 11:39:50;;;;;;;2.70;1.42;;;;;;;;;;5071724;28;20027;-89
2023/09/15 11:42:16;;;;;;;2.17;1.40;;;;;;;;;;5058109;28;20047;-89
2023/09/15 11:44:44;;;;;;;3.90;1.63;;;;;;;;;;5071975;28;20467;-89
2023/09/15 11:47:09;;;;;;;3.28;1.52;;;;;;;;;;5071587;28;20479;-89
2023/09/15 11:49:35;;;;;;;3.85;1.80;;;;;;;;;;5067683;28;20070;-89
2023/09/15 11:52:03;;;;;;;3.97;1.40;;;;;;;;;;5071638;28;20108;-88
2023/09/15 11:54:31;;;;;;;2.63;1.33;;;;;;;;;;5071885;28;20305;-89
2023/09/15 11:56:57;;;;;;;3.25;1.50;;;;;;;;;;5072060;28;20027;-89
2023/09/15 11:59:23;;;;;;;3.35;1.55;;;;;;;;;;5072012;28;20530;-89
2023/09/15 12:01:48;;;;;;;3.63;1.50;;;;;;;;;;5062869;28;20033;-89
2023/09/15 12:04:16;;;;;;;3.78;1.40;;;;;;;;;;5072234;28;20082;-89
2023/09/15 12:06:42;;;;;;;4.88;1.30;;;;;;;;;;5068123;28;20013;-89
2023/09/15 12:09:10;;;;;;;3.13;1.80;;;;;;;;;;5063185;28;20028;-89
2023/09/15 12:11:39;;;;;;;4.55;1.63;;;;;;;;;;5074993;28;20383;-89
2023/09/15 12:14:06;;;;;;;2.55;1.45;;;;;;;;;;5075331;28;20070;-90
2023/09/15 12:16:32;;;;;;;4.35;2.28;;;;;;;;;;5071313;28;20388;-89
2023/09/15 12:19:01;;;;;;;4.28;1.65;;;;;;;;;;5063710;28;20112;-89
2023/09/15 12:21:27;;;;;;;2.15;1.58;;;;;;;;;;5076542;28;20372;-87
2023/09/15 12:24:00;;;;;;;3.35;1.67;;;;;;;;;;5076839;28;20020;-89
2023/09/15 12:26:29;;;;;;;3.50;1.70;;;;;;;;;;5064801;28;20025;-89
2023/09/15 12:28:54;;;;;;;3.28;1.60;;;;;;;;;;5079273;28;20013;-89
2023/09/15 12:31:24;;;;;;;2.50;1.38;;;;;;;;;;5063238;28;20036;-90
2023/09/15 12:33:53;;;;;;;6.13;1.67;;;;;;;;;;5062378;28;20111;-89
2023/09/15 12:36:19;;;;;;;2.95;1.45;;;;;;;;;;5076792;28;20391;-90
2023/09/15 12:38:51;;;;;;;2.90;1.40;;;;;;;;;;5073069;28;20031;-90
2023/09/15 12:41:16;;;;;;;3.50;1.60;;;;;;;;;;5072092;28;20471;-89
2023/09/15 12:43:41;;;;;;;5.20;1.88;;;;;;;;;;5075317;28;20024;-89
2023/09/15 12:46:07;;;;;;;3.28;1.85;;;;;;;;;;5074869;28;20013;-90
2023/09/15 12:48:32;;;;;;;3.22;1.80;;;;;;;;;;5075291;28;20027;-90
2023/09/15 12:50:58;;;;;;;6.72;1.77;;;;;;;;;;5074041;28;20028;-90
2023/09/15 12:53:23;;;;;;;4.07;1.80;;;;;;;;;;5074752;28;20024;-90
2023/09/15 12:55:48;;;;;;;5.22;1.90;;;;;;;;;;5074407;28;20024;-90
2023/09/15 12:58:13;;;;;;;4.18;1.85;;;;;;;;;;5066732;28;20031;-90
2023/09/15 13:00:39;;;;;;;4.63;1.80;;;;;;;;;;5069777;28;20048;-88
2023/09/15 13:03:06;;;;;;;3.63;1.50;;;;;;;;;;5054775;28;20463;-90
2023/09/15 13:05:35;;;;;;;6.75;2.00;;;;;;;;;;5064820;28;20048;-89
2023/09/15 13:08:00;;;;;;;5.82;2.15;;;;;;;;;;5061848;28;20035;-90
2023/09/15 13:10:25;;;;;;;4.43;1.55;;;;;;;;;;5064523;28;20448;-90
2023/09/15 13:12:50;;;;;;;4.28;2.35;;;;;;;;;;5070131;28;20095;-90
2023/09/15 13:15:21;;;;;;;2.50;1.85;;;;;;;;;;5074433;28;20021;-90
2023/09/15 13:17:46;;;;;;;3.45;1.58;;;;;;;;;;5059361;28;20464;-90
2023/09/15 13:20:13;;;;;;;7.50;1.73;;;;;;;;;;5067663;28;20109;-90
2023/09/15 13:22:38;;;;;;;3.05;1.67;;;;;;;;;;5067949;28;20100;-90
2023/09/15 13:25:04;;;;;;;2.40;1.70;;;;;;;;;;5073770;28;20056;-90
2023/09/15 13:27:30;;;;;;;5.70;2.28;;;;;;;;;;5073220;28;20024;-89
2023/09/15 13:29:58;;;;;;;4.22;1.95;;;;;;;;;;5073715;28;20040;-90
2023/09/15 13:32:25;;;;;;;2.47;1.50;;;;;;;;;;5073815;28;20445;-89
2023/09/15 13:34:50;;;;;;;3.88;1.83;;;;;;;;;;5060011;28;20334;-90
2023/09/15 13:37:16;;;;;;;6.45;1.50;;;;;;;;;;5073103;28;20464;-90
2023/09/15 13:39:41;;;;;;;3.70;1.70;;;;;;;;;;5061440;28;20158;-89
2023/09/15 13:42:06;;;;;;;4.05;1.77;;;;;;;;;;5075165;28;20029;-89
2023/09/15 13:44:32;;;;;;;6.60;1.70;;;;;;;;;;5075309;28;20055;-90
2023/09/15 13:46:57;;;;;;;3.38;1.70;;;;;;;;;;5075396;28;20021;-90
2023/09/15 13:49:23;;;;;;;4.40;1.75;;;;;;;;;;5063619;28;20025;-90
2023/09/15 13:51:48;;;;;;;3.05;1.75;;;;;;;;;;5075901;28;20033;-90
2023/09/15 13:54:14;;;;;;;3.67;1.77;;;;;;;;;;5075213;28;20088;-90
2023/09/15 13:56:42;;;;;;;4.15;1.50;;;;;;;;;;5076572;28;20432;-90
2023/09/15 13:59:07;;;;;;;4.97;1.60;;;;;;;;;;5074032;28;20025;-90
2023/09/15 14:01:33;;;;;;;5.97;2.00;;;;;;;;;;5074195;28;20483;-89
2023/09/15 14:03:59;;;;;;;3.47;1.85;;;;;;;;;;5060603;28;20174;-91
2023/09/15 14:06:24;;;;;;;8.35;1.85;;;;;;;;;;5058416;28;20023;-90
2023/09/15 14:08:52;;;;;;;5.00;1.50;;;;;;;;;;5064049;28;20052;-90
2023/09/15 14:11:18;;;;;;;4.70;1.63;;;;;;;;;;5053609;28;20013;-90
2023/09/15 14:13:43;;;;;;;2.60;1.60;;;;;;;;;;5052964;28;20096;-90
2023/09/15 14:16:08;;;;;;;4.78;1.60;;;;;;;;;;5066538;28;20697;-90
2023/09/15 14:18:36;;;;;;;3.45;1.70;;;;;;;;;;5071937;28;20039;-90
2023/09/15 14:21:01;;;;;;;3.53;1.88;;;;;;;;;;5073648;28;20051;-90
2023/09/15 14:23:27;;;;;;;3.55;1.80;;;;;;;;;;5053790;28;20464;-90
2023/09/15 14:25:52;;;;;;;2.72;1.70;;;;;;;;;;5052318;28;20017;-90
2023/09/15 14:28:18;;;;;;;2.83;1.48;;;;;;;;;;5071936;28;20027;-90
2023/09/15 14:30:43;;;;;;;2.92;1.50;;;;;;;;;;5072547;28;20099;-90
2023/09/15 14:33:09;;;;;;;5.10;1.63;;;;;;;;;;5071706;28;20017;-90